Time;durP1;ratioP1;P1;durP2;ratioP2;P2;SDS_P1;SDS_P2;PMS_P1;PMS_P2;Temp;Humidity;BMP_temperature;BMP_pressure;BME280_temperature;BME280_humidity;BME280_pressure;Samples;Min_cycle;Max_cycle;Signal;HPM_P1;HPM_P2
2022/08/14 00:02:08;;;;;;;;;;;;;;;35.28;29.18;100469.75;4427674;32;19961;-66
2022/08/14 00:04:35;;;;;;;;;;;;;;;35.19;29.32;100463.94;4430758;32;20668;-69
2022/08/14 00:07:01;;;;;;;;;;;;;;;35.21;29.23;100464.84;4430291;32;20416;-67
2022/08/14 00:09:26;;;;;;;;;;;;;;;35.39;28.92;100463.31;4430476;32;19953;-69
2022/08/14 00:11:51;;;;;;;;;;;;;;;35.27;29.01;100461.59;4428032;32;19978;-66
2022/08/14 00:14:18;;;;;;;;;;;;;;;35.31;29.10;100470.69;4429445;32;19961;-68
2022/08/14 00:16:43;;;;;;;;;;;;;;;35.49;28.94;100458.19;4430373;32;19984;-66
2022/08/14 00:19:09;;;;;;;;;;;;;;;35.20;29.15;100466.25;4426666;32;19989;-67
2022/08/14 00:21:34;;;;;;;;;;;;;;;35.34;29.01;100454.88;4427600;32;19942;-69
2022/08/14 00:24:00;;;;;;;;;;;;;;;35.12;29.25;100453.94;4430095;32;20335;-66
2022/08/14 00:26:26;;;;;;;;;;;;;;;35.29;28.99;100444.97;4429466;32;20007;-68
2022/08/14 00:28:52;;;;;;;;;;;;;;;35.27;28.99;100447.75;4426664;32;19953;-67
2022/08/14 00:31:18;;;;;;;;;;;;;;;35.19;29.11;100446.38;4427706;32;19953;-66
2022/08/14 00:33:43;;;;;;;;;;;;;;;35.30;28.86;100445.72;4427696;32;20043;-66
2022/08/14 00:36:09;;;;;;;;;;;;;;;35.24;28.96;100442.34;4428702;32;19949;-66
2022/08/14 00:38:35;;;;;;;;;;;;;;;35.30;29.03;100436.94;4429928;32;20037;-68
2022/08/14 00:41:04;;;;;;;;;;;;;;;35.23;29.24;100441.59;4430720;32;19964;-66
2022/08/14 00:43:30;;;;;;;;;;;;;;;34.88;29.69;100434.56;4430084;32;20014;-66
2022/08/14 00:45:55;;;;;;;;;;;;;;;34.16;30.97;100435.56;4429224;32;19957;-68
2022/08/14 00:48:21;;;;;;;;;;;;;;;34.03;31.45;100438.94;4425706;32;20333;-68
2022/08/14 00:50:46;;;;;;;;;;;;;;;34.73;30.31;100449.50;4429358;32;20369;-65
2022/08/14 00:53:14;;;;;;;;;;;;;;;34.90;30.08;100431.81;4431363;32;19965;-66
2022/08/14 00:55:41;;;;;;;;;;;;;;;34.86;30.12;100430.72;4427872;32;19968;-68
2022/08/14 00:58:38;;;;;;;;;;;;;;;34.76;30.35;100433.66;4428612;32;20291;-66
2022/08/14 01:00:53;;;;;;;;;;;;;;;34.53;30.88;100435.47;4416610;32;19987;-67
2022/08/14 01:03:19;;;;;;;;;;;;;;;34.52;30.98;100437.66;4429285;32;19958;-66
2022/08/14 01:05:48;;;;;;;;;;;;;;;34.36;31.22;100427.63;4428061;32;20181;-67
2022/08/14 01:08:17;;;;;;;;;;;;;;;34.52;31.05;100425.94;4428891;32;20405;-66
2022/08/14 01:10:50;;;;;;;;;;;;;;;34.47;31.09;100432.12;4430568;32;20039;-66
2022/08/14 01:16:00;;;;;;;;;;;;;;;34.75;30.98;100420.41;3956488;32;15987619;-66
2022/08/14 01:21:15;;;;;;;;;;;;;;;34.53;30.99;100421.62;4444408;32;19953;-67
2022/08/14 01:23:43;;;;;;;;;;;;;;;34.45;31.13;100426.09;4446400;32;20362;-68
2022/08/14 01:26:09;;;;;;;;;;;;;;;34.39;31.24;100409.63;4448231;32;19945;-67
2022/08/14 01:28:36;;;;;;;;;;;;;;;34.05;31.59;100412.03;4446017;32;19957;-66
2022/08/14 01:31:04;;;;;;;;;;;;;;;34.15;31.60;100409.91;4446875;32;20202;-68
2022/08/14 01:33:30;;;;;;;;;;;;;;;33.67;32.23;100409.72;4448531;32;20044;-66
2022/08/14 01:35:58;;;;;;;;;;;;;;;33.94;31.64;100401.72;4445481;32;20374;-66
2022/08/14 01:38:25;;;;;;;;;;;;;;;33.67;32.12;100403.13;4448973;32;19964;-67
2022/08/14 01:40:51;;;;;;;;;;;;;;;34.20;31.30;100403.75;4445475;32;19986;-64
2022/08/14 01:43:17;;;;;;;;;;;;;;;34.14;31.08;100405.41;4447853;32;20416;-64
2022/08/14 01:45:44;;;;;;;;;;;;;;;33.99;31.31;100394.03;4447419;32;20008;-65
2022/08/14 01:48:10;;;;;;;;;;;;;;;34.03;31.35;100389.28;4445931;32;19997;-67
2022/08/14 01:50:36;;;;;;;;;;;;;;;34.10;31.10;100390.50;4447139;32;19967;-64
2022/08/14 01:53:03;;;;;;;;;;;;;;;34.27;30.91;100388.22;4446817;32;20004;-65
2022/08/14 01:55:30;;;;;;;;;;;;;;;34.13;31.10;100383.44;4454450;32;19945;-67
2022/08/14 01:57:57;;;;;;;;;;;;;;;34.38;30.71;100383.94;4448012;32;19949;-65
2022/08/14 02:00:23;;;;;;;;;;;;;;;34.48;30.63;100375.94;4445420;32;20411;-67
2022/08/14 02:02:49;;;;;;;;;;;;;;;34.46;30.73;100375.81;4448459;32;20007;-65
2022/08/14 02:05:15;;;;;;;;;;;;;;;34.37;30.74;100382.41;4449124;32;20224;-65
2022/08/14 02:07:42;;;;;;;;;;;;;;;34.20;30.91;100380.38;4446949;32;20528;-66
2022/08/14 02:10:09;;;;;;;;;;;;;;;34.29;30.84;100375.91;4446531;32;19993;-66
2022/08/14 02:12:35;;;;;;;;;;;;;;;34.32;30.75;100372.53;4445267;32;19957;-67
2022/08/14 02:15:01;;;;;;;;;;;;;;;34.18;30.89;100368.53;4447338;32;19983;-63
2022/08/14 02:17:27;;;;;;;;;;;;;;;33.99;30.99;100368.50;4446811;32;19953;-64
2022/08/14 02:19:54;;;;;;;;;;;;;;;33.98;31.23;100369.13;4445978;32;20341;-64
2022/08/14 02:22:20;;;;;;;;;;;;;;;33.82;31.29;100368.59;4443133;32;20395;-64
2022/08/14 02:24:45;;;;;;;;;;;;;;;34.14;30.83;100368.22;4450251;32;20206;-66
2022/08/14 02:27:11;;;;;;;;;;;;;;;34.01;30.87;100373.72;4441761;32;19993;-65
2022/08/14 02:29:36;;;;;;;;;;;;;;;33.74;31.52;100367.19;4433834;32;20380;-67
2022/08/14 02:32:02;;;;;;;;;;;;;;;34.00;31.05;100367.16;4435721;32;19949;-64
2022/08/14 02:34:30;;;;;;;;;;;;;;;33.95;31.47;100371.12;4440919;32;20003;-67
2022/08/14 02:36:58;;;;;;;;;;;;;;;33.06;33.02;100365.34;4437551;32;20012;-66
2022/08/14 02:39:24;;;;;;;;;;;;;;;33.69;31.89;100365.34;4435565;32;20356;-64
2022/08/14 02:41:51;;;;;;;;;;;;;;;33.91;31.42;100362.06;4430117;32;19993;-65
2022/08/14 02:44:19;;;;;;;;;;;;;;;34.02;31.14;100361.44;4439333;32;19967;-64
2022/08/14 02:46:46;;;;;;;;;;;;;;;34.02;30.97;100354.84;4437981;32;20013;-67
2022/08/14 02:49:11;;;;;;;;;;;;;;;33.97;31.10;100353.00;4434485;32;20041;-65
2022/08/14 02:51:38;;;;;;;;;;;;;;;34.00;30.91;100358.38;4436355;32;20385;-67
2022/08/14 02:54:06;;;;;;;;;;;;;;;34.16;30.80;100356.69;4439636;32;19956;-65
2022/08/14 02:56:32;;;;;;;;;;;;;;;34.19;30.67;100346.72;4438955;32;20065;-64
2022/08/14 02:59:00;;;;;;;;;;;;;;;34.35;30.27;100344.25;4426011;32;20001;-68
2022/08/14 03:01:27;;;;;;;;;;;;;;;34.20;30.54;100342.41;4435558;32;19992;-64
2022/08/14 03:03:54;;;;;;;;;;;;;;;34.14;30.71;100336.09;4436794;32;20361;-64
2022/08/14 03:06:22;;;;;;;;;;;;;;;34.17;30.48;100337.00;4438017;32;19953;-66
2022/08/14 03:08:49;;;;;;;;;;;;;;;34.31;30.46;100335.97;4437756;32;19991;-66
2022/08/14 03:11:14;;;;;;;;;;;;;;;34.34;30.35;100339.78;4437974;32;19953;-67
2022/08/14 03:13:43;;;;;;;;;;;;;;;34.27;30.44;100329.03;4438064;32;20275;-68
2022/08/14 03:16:13;;;;;;;;;;;;;;;34.26;30.41;100330.41;4438020;32;20431;-66
2022/08/14 03:18:41;;;;;;;;;;;;;;;34.25;30.54;100331.78;4435271;32;19953;-64
2022/08/14 03:21:07;;;;;;;;;;;;;;;34.07;30.69;100339.16;4438909;32;20008;-65
2022/08/14 03:23:34;;;;;;;;;;;;;;;34.25;30.40;100326.72;4434414;32;20012;-65
2022/08/14 03:26:02;;;;;;;;;;;;;;;33.91;31.01;100326.25;4436896;32;20034;-65
2022/08/14 03:28:29;;;;;;;;;;;;;;;33.92;30.93;100321.94;4431572;32;19997;-65
2022/08/14 03:30:56;;;;;;;;;;;;;;;34.12;30.52;100308.88;4436757;32;19971;-67
2022/08/14 03:33:21;;;;;;;;;;;;;;;34.18;30.39;100307.19;4439288;32;19973;-65
2022/08/14 03:35:48;;;;;;;;;;;;;;;33.99;30.37;100307.19;4422757;32;20010;-66
2022/08/14 03:38:17;;;;;;;;;;;;;;;34.04;30.48;100303.19;4435070;32;20325;-67
2022/08/14 03:40:43;;;;;;;;;;;;;;;34.13;30.45;100301.66;4435300;32;20093;-66
2022/08/14 03:43:09;;;;;;;;;;;;;;;34.07;30.45;100299.06;4434983;32;19996;-68
2022/08/14 03:45:36;;;;;;;;;;;;;;;33.85;30.72;100290.69;4435025;32;19961;-67
2022/08/14 03:48:03;;;;;;;;;;;;;;;33.90;30.68;100290.41;4437148;32;19953;-67
2022/08/14 03:50:31;;;;;;;;;;;;;;;33.89;30.70;100285.19;4436208;32;20008;-65
2022/08/14 03:52:57;;;;;;;;;;;;;;;33.84;30.64;100280.41;4434220;32;19957;-68
2022/08/14 03:55:22;;;;;;;;;;;;;;;33.79;30.55;100287.31;4435562;32;19952;-66
2022/08/14 03:57:48;;;;;;;;;;;;;;;33.82;30.58;100283.16;4438617;32;19969;-67
2022/08/14 04:00:14;;;;;;;;;;;;;;;33.76;30.58;100279.78;4433651;32;20008;-68
2022/08/14 04:02:40;;;;;;;;;;;;;;;33.76;30.65;100268.09;4434723;32;20375;-66
2022/08/14 04:05:07;;;;;;;;;;;;;;;33.56;30.86;100278.97;4438668;32;19956;-64
2022/08/14 04:07:33;;;;;;;;;;;;;;;33.73;30.72;100275.16;4435465;32;20243;-65
2022/08/14 04:09:58;;;;;;;;;;;;;;;33.86;30.55;100271.78;4422941;32;19957;-67
2022/08/14 04:12:24;;;;;;;;;;;;;;;33.77;30.68;100275.47;4435096;32;20016;-67
2022/08/14 04:14:51;;;;;;;;;;;;;;;33.88;30.57;100264.00;4432990;32;19954;-67
2022/08/14 04:17:17;;;;;;;;;;;;;;;33.86;30.43;100260.13;4436482;32;19945;-68
2022/08/14 04:19:44;;;;;;;;;;;;;;;33.96;30.38;100258.78;4436736;32;20143;-68
2022/08/14 04:22:10;;;;;;;;;;;;;;;33.86;30.47;100248.44;4424490;32;20003;-67
2022/08/14 04:24:35;;;;;;;;;;;;;;;33.84;30.54;100257.81;4435602;32;20088;-67
2022/08/14 04:27:01;;;;;;;;;;;;;;;33.87;30.39;100261.69;4436674;32;19988;-65
2022/08/14 04:29:27;;;;;;;;;;;;;;;33.86;30.36;100263.03;4433864;32;20670;-68
2022/08/14 04:31:53;;;;;;;;;;;;;;;33.94;30.16;100254.94;4436641;32;19967;-67
2022/08/14 04:34:19;;;;;;;;;;;;;;;33.82;30.11;100254.75;4436017;32;20015;-65
2022/08/14 04:45:00;;;;;;;;;;;;;;;33.68;30.07;100250.00;4435619;32;19960;-65
2022/08/14 04:50:11;;;;;;;;;;;;;;;33.59;30.30;100251.50;4433004;32;19960;-66
2022/08/14 04:52:38;;;;;;;;;;;;;;;33.63;30.19;100259.81;4437427;32;20003;-66
2022/08/14 04:55:03;;;;;;;;;;;;;;;33.46;30.13;100243.19;4435593;32;19953;-65
2022/08/14 04:57:29;;;;;;;;;;;;;;;33.65;30.14;100246.12;4438545;32;19953;-67
2022/08/14 04:59:55;;;;;;;;;;;;;;;33.67;30.00;100243.38;4436097;32;19977;-66
2022/08/14 05:02:23;;;;;;;;;;;;;;;33.68;30.06;100247.06;4437861;32;20013;-65
2022/08/14 05:04:49;;;;;;;;;;;;;;;33.74;30.00;100244.59;4438621;32;19989;-68
2022/08/14 05:07:14;;;;;;;;;;;;;;;33.60;30.21;100238.47;4435230;32;19960;-67
2022/08/14 05:09:40;;;;;;;;;;;;;;;33.48;30.26;100246.25;4430921;32;19989;-65
2022/08/14 05:12:06;;;;;;;;;;;;;;;33.60;29.87;100241.38;4435886;32;19993;-65
2022/08/14 05:14:31;;;;;;;;;;;;;;;33.63;30.21;100248.13;4437085;32;19971;-65
2022/08/14 05:16:57;;;;;;;;;;;;;;;33.58;30.08;100243.34;4434697;32;20340;-68
2022/08/14 05:19:26;;;;;;;;;;;;;;;33.70;30.04;100253.03;4431822;32;20014;-65
2022/08/14 05:21:55;;;;;;;;;;;;;;;33.63;29.91;100253.97;4439011;32;19946;-66
2022/08/14 05:24:20;;;;;;;;;;;;;;;33.84;29.65;100248.31;4438884;32;19965;-68
2022/08/14 05:26:46;;;;;;;;;;;;;;;33.66;29.65;100247.69;4434378;32;19959;-68
2022/08/14 05:29:12;;;;;;;;;;;;;;;33.82;29.66;100253.97;4436313;32;20327;-66
2022/08/14 05:31:39;;;;;;;;;;;;;;;33.87;29.78;100244.19;4436376;32;19993;-68
2022/08/14 05:34:06;;;;;;;;;;;;;;;33.86;29.79;100246.31;4437874;32;19973;-65
2022/08/14 05:36:32;;;;;;;;;;;;;;;33.75;29.87;100243.97;4435726;32;19967;-65
2022/08/14 05:38:58;;;;;;;;;;;;;;;33.88;29.70;100236.94;4433264;32;20965;-68
2022/08/14 05:41:23;;;;;;;;;;;;;;;33.92;29.55;100240.19;4433418;32;20357;-67
2022/08/14 05:43:49;;;;;;;;;;;;;;;34.13;29.35;100249.09;4434169;32;19960;-66
2022/08/14 05:46:17;;;;;;;;;;;;;;;34.15;29.12;100240.47;4437125;32;19952;-66
2022/08/14 05:48:46;;;;;;;;;;;;;;;34.09;29.09;100242.94;4421524;32;19962;-67
2022/08/14 05:51:12;;;;;;;;;;;;;;;34.38;28.94;100234.94;4435010;32;20012;-68
2022/08/14 05:53:38;;;;;;;;;;;;;;;34.48;28.56;100229.81;4437609;32;20009;-65
2022/08/14 05:56:03;;;;;;;;;;;;;;;34.64;28.68;100242.72;4435800;32;20217;-65
2022/08/14 05:58:29;;;;;;;;;;;;;;;34.52;28.77;100235.22;4435791;32;19973;-67
2022/08/14 06:00:56;;;;;;;;;;;;;;;34.62;28.66;100227.19;4433711;32;19996;-66
2022/08/14 06:03:22;;;;;;;;;;;;;;;34.54;28.74;100223.69;4437538;32;19982;-65
2022/08/14 06:05:50;;;;;;;;;;;;;;;34.34;29.05;100232.47;4438488;32;20012;-65
2022/08/14 06:08:18;;;;;;;;;;;;;;;34.49;28.92;100231.38;4438081;32;19949;-65
2022/08/14 06:10:44;;;;;;;;;;;;;;;34.62;28.63;100233.03;4437674;32;20312;-68
2022/08/14 06:13:09;;;;;;;;;;;;;;;34.72;28.47;100236.69;4438905;32;20022;-65
2022/08/14 06:15:35;;;;;;;;;;;;;;;34.70;28.55;100230.69;4439019;32;19954;-64
2022/08/14 06:18:00;;;;;;;;;;;;;;;34.57;28.72;100228.28;4438127;32;19954;-68
2022/08/14 06:20:26;;;;;;;;;;;;;;;34.61;28.76;100225.66;4437454;32;20003;-67
2022/08/14 06:22:52;;;;;;;;;;;;;;;34.73;28.40;100227.31;4441271;32;19961;-67
2022/08/14 06:25:17;;;;;;;;;;;;;;;34.89;28.34;100225.59;4434865;32;20018;-67
2022/08/14 06:27:45;;;;;;;;;;;;;;;34.82;28.15;100216.97;4433518;32;19988;-67
2022/08/14 06:30:14;;;;;;;;;;;;;;;34.97;27.95;100213.69;4435986;32;20033;-65
2022/08/14 06:32:39;;;;;;;;;;;;;;;35.18;27.87;100220.34;4437239;32;20114;-68
2022/08/14 06:35:06;;;;;;;;;;;;;;;35.13;27.92;100209.00;4433710;32;20006;-65
2022/08/14 06:40:17;;;;;;;;;;;;;;;35.61;27.29;100204.38;3957758;32;15723430;-65
2022/08/14 06:42:42;;;;;;;;;;;;;;;35.61;27.29;100204.38;4440475;32;19993;-66
2022/08/14 06:45:08;;;;;;;;;;;;;;;35.53;27.29;100200.91;4439074;32;20028;-67
2022/08/14 06:47:35;;;;;;;;;;;;;;;35.46;27.53;100209.91;4438938;32;19994;-68
2022/08/14 06:50:01;;;;;;;;;;;;;;;35.43;27.73;100199.44;4435396;32;20038;-67
2022/08/14 06:52:27;;;;;;;;;;;;;;;35.48;27.82;100204.94;4434248;32;19968;-65
2022/08/14 06:54:53;;;;;;;;;;;;;;;35.27;27.88;100204.13;4439719;32;19957;-67
2022/08/14 06:57:19;;;;;;;;;;;;;;;35.31;28.14;100205.16;4440103;32;20046;-66
2022/08/14 06:59:44;;;;;;;;;;;;;;;35.32;28.00;100200.88;4426338;32;20605;-68
2022/08/14 07:07:41;;;;;;;;;;;;;;;35.55;28.05;100200.28;4441389;32;20012;-65
2022/08/14 07:10:08;;;;;;;;;;;;;;;35.60;27.75;100194.06;4438547;32;19962;-68
2022/08/14 07:12:33;;;;;;;;;;;;;;;35.57;27.88;100201.19;4439694;32;19960;-68
2022/08/14 07:15:02;;;;;;;;;;;;;;;35.71;27.67;100202.13;4439536;32;19961;-66
2022/08/14 07:17:28;;;;;;;;;;;;;;;35.97;27.49;100209.03;4438238;32;19949;-65
2022/08/14 07:19:54;;;;;;;;;;;;;;;36.18;27.22;100212.69;4430482;32;20054;-67
2022/08/14 07:22:21;;;;;;;;;;;;;;;36.12;26.97;100212.31;4441807;32;19967;-67
2022/08/14 07:24:47;;;;;;;;;;;;;;;35.74;27.83;100209.66;4441009;32;20000;-64
2022/08/14 07:27:12;;;;;;;;;;;;;;;35.98;27.42;100205.47;4430882;32;20077;-65
2022/08/14 07:29:38;;;;;;;;;;;;;;;36.33;26.98;100220.28;4434977;32;19945;-67
2022/08/14 07:32:04;;;;;;;;;;;;;;;36.51;26.91;100209.00;4440092;32;20000;-66
2022/08/14 07:34:30;;;;;;;;;;;;;;;36.58;26.71;100205.03;4440407;32;20046;-65
2022/08/14 07:36:55;;;;;;;;;;;;;;;36.78;26.41;100209.31;4441181;32;19953;-67
2022/08/14 07:39:21;;;;;;;;;;;;;;;36.77;26.37;100214.41;4437221;32;19964;-68
2022/08/14 07:41:46;;;;;;;;;;;;;;;36.60;26.43;100211.03;4438966;32;19992;-65
2022/08/14 07:44:12;;;;;;;;;;;;;;;36.81;26.48;100213.91;4440462;32;20611;-66
2022/08/14 07:46:38;;;;;;;;;;;;;;;36.79;26.49;100205.75;4438361;32;19958;-69
2022/08/14 07:49:04;;;;;;;;;;;;;;;36.16;27.01;100209.63;4437759;32;19997;-68
2022/08/14 07:51:29;;;;;;;;;;;;;;;36.63;26.83;100198.81;4417899;32;20031;-66
2022/08/14 07:53:56;;;;;;;;;;;;;;;36.78;26.80;100209.31;4430592;32;20009;-67
2022/08/14 07:56:22;;;;;;;;;;;;;;;36.93;26.38;100203.69;4430840;32;19997;-68
2022/08/14 07:58:48;;;;;;;;;;;;;;;36.69;26.37;100207.25;4430247;32;19963;-65
2022/08/14 08:01:14;;;;;;;;;;;;;;;37.00;26.18;100205.63;4430134;32;20337;-67
2022/08/14 08:03:41;;;;;;;;;;;;;;;37.02;26.30;100199.87;4428563;32;19985;-68
2022/08/14 08:06:07;;;;;;;;;;;;;;;37.07;25.96;100195.03;4429826;32;20060;-65
2022/08/14 08:08:32;;;;;;;;;;;;;;;37.36;25.56;100207.91;4429751;32;19953;-68
2022/08/14 08:10:59;;;;;;;;;;;;;;;37.60;25.35;100208.62;4427721;32;19952;-67
2022/08/14 08:13:25;;;;;;;;;;;;;;;37.46;25.51;100204.84;4427189;32;19953;-67
2022/08/14 08:15:52;;;;;;;;;;;;;;;37.78;25.06;100203.88;4427939;32;19957;-66
2022/08/14 08:18:19;;;;;;;;;;;;;;;37.68;25.26;100207.00;4428655;32;21289;-67
2022/08/14 08:20:46;;;;;;;;;;;;;;;37.60;25.39;100203.53;4427054;32;20005;-68
2022/08/14 08:23:12;;;;;;;;;;;;;;;37.90;24.80;100198.72;4430146;32;20013;-65
2022/08/14 08:25:39;;;;;;;;;;;;;;;38.39;24.41;100203.09;4430233;32;20044;-65
2022/08/14 08:28:07;;;;;;;;;;;;;;;38.28;24.39;100195.12;4429189;32;19983;-68
2022/08/14 08:30:34;;;;;;;;;;;;;;;38.55;24.22;100188.56;4427677;32;19992;-66
2022/08/14 08:33:00;;;;;;;;;;;;;;;38.63;24.22;100192.00;4429046;32;20494;-66
2022/08/14 08:35:28;;;;;;;;;;;;;;;38.16;24.69;100173.84;4429202;32;19945;-66
2022/08/14 08:37:54;;;;;;;;;;;;;;;38.26;24.32;100171.50;4426730;32;20004;-66
2022/08/14 08:40:24;;;;;;;;;;;;;;;38.78;23.92;100171.53;4429077;32;20008;-66
2022/08/14 08:42:50;;;;;;;;;;;;;;;39.20;23.46;100173.88;4428865;32;20757;-65
2022/08/14 08:45:15;;;;;;;;;;;;;;;39.37;23.36;100170.38;4429887;32;19972;-66
2022/08/14 08:47:42;;;;;;;;;;;;;;;39.62;22.78;100169.47;4426703;32;20034;-66
2022/08/14 08:50:24;;;;;;;;;;;;;;;39.89;22.49;100172.37;4430089;32;20343;-67
2022/08/14 08:52:51;;;;;;;;;;;;;;;40.09;22.21;100172.63;4428376;32;20350;-66
2022/08/14 08:55:25;;;;;;;;;;;;;;;40.43;21.82;100171.41;4429904;32;20001;-68
2022/08/14 08:57:55;;;;;;;;;;;;;;;40.65;21.47;100158.47;4429432;32;19961;-66
2022/08/14 09:00:20;;;;;;;;;;;;;;;41.09;21.07;100165.72;4430080;32;20009;-67
2022/08/14 09:02:56;;;;;;;;;;;;;;;41.11;20.98;100162.87;4428648;32;21083;-67
2022/08/14 09:05:23;;;;;;;;;;;;;;;41.06;20.99;100167.81;4427561;32;20011;-68
2022/08/14 09:07:48;;;;;;;;;;;;;;;41.03;20.77;100162.47;4425912;32;19996;-65
2022/08/14 09:10:14;;;;;;;;;;;;;;;41.13;20.68;100166.69;4426197;32;19972;-69
2022/08/14 09:12:39;;;;;;;;;;;;;;;40.49;21.50;100163.59;4429522;32;20409;-66
2022/08/14 09:15:08;;;;;;;;;;;;;;;41.31;20.55;100157.88;4428077;32;19971;-66
2022/08/14 09:17:34;;;;;;;;;;;;;;;41.55;20.25;100167.84;4414551;32;20112;-67
2022/08/14 09:20:00;;;;;;;;;;;;;;;41.97;19.77;100172.66;4427505;32;20004;-66
2022/08/14 09:22:26;;;;;;;;;;;;;;;42.01;19.39;100169.84;4429409;32;19993;-66
2022/08/14 09:24:52;;;;;;;;;;;;;;;42.42;19.03;100161.22;4428903;32;20002;-68
2022/08/14 09:27:18;;;;;;;;;;;;;;;42.72;18.61;100155.75;4427458;32;19953;-66
2022/08/14 09:29:43;;;;;;;;;;;;;;;42.89;18.21;100155.72;4427472;32;20066;-69
2022/08/14 09:32:11;;;;;;;;;;;;;;;43.29;17.75;100147.59;4429494;32;19981;-66
2022/08/14 09:37:33;;;;;;;;;;;;;;;43.88;17.37;100144.53;3958407;32;15727569;-69
2022/08/14 09:40:05;;;;;;;;;;;;;;;43.88;17.37;100144.53;4429925;32;20300;-64
2022/08/14 09:53:02;;;;;;;;;;;;;;;43.80;17.32;100114.59;3956352;32;15747476;-65
2022/08/14 09:55:32;;;;;;;;;;;;;;;43.80;17.32;100114.59;4440378;32;20007;-69
2022/08/14 09:58:17;;;;;;;;;;;;;;;43.32;17.26;100106.94;4435537;32;19953;-68
2022/08/14 10:00:45;;;;;;;;;;;;;;;44.27;16.45;100111.75;4436678;32;19948;-66
2022/08/14 10:03:11;;;;;;;;;;;;;;;44.41;16.19;100106.22;4442704;32;20004;-66
2022/08/14 10:05:39;;;;;;;;;;;;;;;44.99;15.62;100104.28;4437644;32;19953;-65
2022/08/14 10:08:15;;;;;;;;;;;;;;;43.45;16.58;100097.03;4437258;32;20030;-64
2022/08/14 10:10:40;;;;;;;;;;;;;;;43.61;16.70;100107.28;4439988;32;19965;-69
2022/08/14 10:13:07;;;;;;;;;;;;;;;44.39;16.01;100097.28;4436771;32;19968;-66
2022/08/14 10:15:37;;;;;;;;;;;;;;;44.01;16.20;100099.75;4437655;32;20340;-66
2022/08/14 10:20:43;;;;;;;;;;;;;;;45.66;15.02;100096.53;3955414;32;15725222;-64
2022/08/14 10:25:49;;;;;;;;;;;;;;;45.79;14.54;100088.72;3957734;32;15727445;-68
2022/08/14 10:28:18;;;;;;;;;;;;;;;45.79;14.54;100088.72;4440016;32;19972;-66
2022/08/14 10:30:47;;;;;;;;;;;;;;;44.53;15.37;100082.84;4437187;32;19969;-66
2022/08/14 10:33:29;;;;;;;;;;;;;;;43.96;15.88;100080.34;4441838;32;20032;-65
2022/08/14 10:35:55;;;;;;;;;;;;;;;44.50;15.66;100081.28;4441384;32;20453;-65
2022/08/14 10:38:31;;;;;;;;;;;;;;;43.99;15.92;100072.25;4439886;32;20033;-66
2022/08/14 10:41:08;;;;;;;;;;;;;;;43.99;15.96;100073.00;4439841;32;19949;-67
2022/08/14 10:43:34;;;;;;;;;;;;;;;44.40;15.71;100072.06;4441360;32;20212;-68
2022/08/14 10:46:00;;;;;;;;;;;;;;;44.82;15.42;100059.25;4440428;32;19949;-65
2022/08/14 10:48:26;;;;;;;;;;;;;;;45.69;14.74;100058.66;4439995;32;20392;-67
2022/08/14 10:50:53;;;;;;;;;;;;;;;45.94;14.43;100061.56;4439112;32;19993;-65
2022/08/14 10:53:28;;;;;;;;;;;;;;;45.38;14.86;100059.34;4441999;32;20015;-65
2022/08/14 10:55:57;;;;;;;;;;;;;;;46.09;14.46;100062.62;4439140;32;19971;-67
2022/08/14 10:58:26;;;;;;;;;;;;;;;46.76;13.91;100058.94;4439101;32;19950;-67
2022/08/14 11:00:54;;;;;;;;;;;;;;;46.83;14.00;100046.47;4438729;32;19961;-67
2022/08/14 11:03:20;;;;;;;;;;;;;;;46.49;14.06;100043.53;4438642;32;19957;-65
2022/08/14 11:05:47;;;;;;;;;;;;;;;46.15;14.29;100042.75;4439136;32;19984;-68
2022/08/14 11:08:14;;;;;;;;;;;;;;;46.30;14.20;100046.78;4439544;32;20209;-66
2022/08/14 11:10:42;;;;;;;;;;;;;;;47.38;13.55;100039.31;4439987;32;20011;-66
2022/08/14 11:13:08;;;;;;;;;;;;;;;47.75;13.29;100036.28;4439637;32;20443;-67
2022/08/14 11:15:34;;;;;;;;;;;;;;;47.72;13.07;100034.72;4438651;32;19981;-66
2022/08/14 11:18:00;;;;;;;;;;;;;;;48.41;12.77;100036.53;4438082;32;19954;-65
2022/08/14 11:20:28;;;;;;;;;;;;;;;48.99;12.30;100033.53;4435746;32;20031;-67
2022/08/14 11:22:55;;;;;;;;;;;;;;;48.93;12.27;100034.22;4439602;32;20016;-70
2022/08/14 11:25:22;;;;;;;;;;;;;;;49.38;12.00;100039.19;4440878;32;20355;-64
2022/08/14 11:27:49;;;;;;;;;;;;;;;49.72;11.67;100030.53;4438766;32;20378;-66
2022/08/14 11:30:16;;;;;;;;;;;;;;;49.89;11.52;100025.41;4436661;32;19957;-65
2022/08/14 11:32:43;;;;;;;;;;;;;;;50.35;11.10;100019.75;4441461;32;19998;-66
2022/08/14 11:35:15;;;;;;;;;;;;;;;50.63;10.97;100025.84;4437230;32;19968;-67
2022/08/14 11:37:58;;;;;;;;;;;;;;;50.98;10.68;100024.47;4428826;32;20396;-66
2022/08/14 11:40:25;;;;;;;;;;;;;;;50.74;10.72;100029.66;4428679;32;19969;-67
2022/08/14 11:42:54;;;;;;;;;;;;;;;51.31;10.42;100016.34;4429967;32;19981;-65
2022/08/14 11:45:21;;;;;;;;;;;;;;;50.57;10.50;100007.84;4427429;32;20682;-66
2022/08/14 11:47:47;;;;;;;;;;;;;;;50.83;10.47;100007.97;4428158;32;20032;-65
2022/08/14 11:52:47;;;;;;;;;;;;;;;52.59;9.34;99997.31;3957269;32;15723612;-67
2022/08/14 11:55:13;;;;;;;;;;;;;;;52.59;9.34;99997.31;4435004;32;19954;-66
2022/08/14 11:57:40;;;;;;;;;;;;;;;52.10;9.63;99996.00;4438255;32;20024;-68
2022/08/14 12:00:08;;;;;;;;;;;;;;;52.04;9.56;99978.03;4435496;32;20004;-67
2022/08/14 12:02:34;;;;;;;;;;;;;;;52.20;9.41;99984.69;4435953;32;20394;-66
2022/08/14 12:05:00;;;;;;;;;;;;;;;52.57;9.31;99982.31;4434607;32;20002;-66
2022/08/14 12:07:25;;;;;;;;;;;;;;;52.56;9.27;99974.78;4430797;32;19957;-68
2022/08/14 12:09:52;;;;;;;;;;;;;;;51.33;9.92;99974.31;4434627;32;20013;-68
2022/08/14 12:12:20;;;;;;;;;;;;;;;51.11;9.72;99968.31;4434837;32;20283;-64
2022/08/14 12:14:47;;;;;;;;;;;;;;;50.29;10.24;99959.78;4436778;32;20382;-67
2022/08/14 12:17:13;;;;;;;;;;;;;;;51.16;9.79;99963.81;4436098;32;20041;-65
2022/08/14 12:19:43;;;;;;;;;;;;;;;51.67;9.47;99959.31;4435426;32;19985;-65
2022/08/14 12:22:08;;;;;;;;;;;;;;;52.23;9.18;99955.44;4431327;32;20024;-67
2022/08/14 12:24:34;;;;;;;;;;;;;;;52.09;9.26;99962.22;4431163;32;19973;-65
2022/08/14 12:26:59;;;;;;;;;;;;;;;52.55;8.94;99944.00;4436742;32;19957;-66
2022/08/14 12:29:25;;;;;;;;;;;;;;;52.39;8.80;99941.09;4437381;32;20122;-67
2022/08/14 12:32:06;;;;;;;;;;;;;;;52.75;8.32;99943.19;4435876;32;19954;-65
2022/08/14 12:34:34;;;;;;;;;;;;;;;53.11;8.03;99937.66;4433717;32;19963;-65
2022/08/14 12:37:04;;;;;;;;;;;;;;;52.84;7.88;99927.31;4431780;32;20010;-66
2022/08/14 12:39:30;;;;;;;;;;;;;;;52.59;8.02;99931.97;4432280;32;19965;-65
2022/08/14 12:42:00;;;;;;;;;;;;;;;53.68;7.36;99925.87;4433317;32;20008;-67
2022/08/14 12:44:30;;;;;;;;;;;;;;;53.78;7.12;99925.75;4429444;32;19954;-67
2022/08/14 12:47:16;;;;;;;;;;;;;;;53.84;6.97;99925.69;4435192;32;20339;-66
2022/08/14 12:49:52;;;;;;;;;;;;;;;53.47;6.50;99923.81;4430815;32;19965;-68
2022/08/14 12:52:30;;;;;;;;;;;;;;;54.39;5.84;99923.50;4433833;32;20147;-66
2022/08/14 12:54:56;;;;;;;;;;;;;;;54.57;5.68;99920.28;4434500;32;19972;-67
2022/08/14 12:57:23;;;;;;;;;;;;;;;53.92;5.91;99913.56;4432325;32;20005;-66
2022/08/14 12:59:50;;;;;;;;;;;;;;;54.18;5.84;99907.22;4432242;32;19971;-68
2022/08/14 13:02:23;;;;;;;;;;;;;;;53.91;5.90;99906.03;4430680;32;19981;-68
2022/08/14 13:04:51;;;;;;;;;;;;;;;54.33;5.75;99899.50;4418985;32;19945;-66
2022/08/14 13:07:16;;;;;;;;;;;;;;;54.33;5.77;99907.78;4423333;32;19996;-65
2022/08/14 13:09:43;;;;;;;;;;;;;;;54.67;5.71;99908.06;4423235;32;20002;-67
2022/08/14 13:12:11;;;;;;;;;;;;;;;54.57;5.60;99895.41;4419497;32;20020;-65
2022/08/14 13:14:37;;;;;;;;;;;;;;;54.37;5.67;99896.41;4423376;32;20001;-68
2022/08/14 13:17:02;;;;;;;;;;;;;;;54.06;5.75;99894.56;4420886;32;19953;-67
2022/08/14 13:19:29;;;;;;;;;;;;;;;54.30;5.68;99889.00;4420678;32;19956;-68
2022/08/14 13:21:55;;;;;;;;;;;;;;;54.89;5.43;99891.16;4422034;32;19993;-67
2022/08/14 13:24:22;;;;;;;;;;;;;;;54.39;5.70;99887.34;4408060;32;20039;-68